createdAt,value
2022-12-08T00:02:25.953Z,100979.34
2022-12-08T00:05:12.995Z,100982.02
2022-12-08T00:08:00.227Z,100983.73
2022-12-08T00:10:50.346Z,100983.36
2022-12-08T00:13:17.743Z,100977.27
2022-12-08T00:15:46.344Z,100975.92
2022-12-08T00:18:15.132Z,100975.77
2022-12-08T00:20:43.814Z,100974.91
2022-12-08T00:23:12.486Z,100984.58
2022-12-08T00:25:41.155Z,100987.61
2022-12-08T00:28:09.881Z,100990.85
2022-12-08T00:30:41.696Z,100992.43
2022-12-08T00:33:11.605Z,100991.91
2022-12-08T00:35:43.085Z,100993.64
2022-12-08T00:38:12.453Z,100998.40
2022-12-08T00:40:47.964Z,101004.95
2022-12-08T00:43:16.615Z,101006.41
2022-12-08T00:45:45.475Z,101008.58
2022-12-08T00:48:14.232Z,101010.89
2022-12-08T00:50:43.142Z,101010.73
2022-12-08T00:53:11.946Z,101011.20
2022-12-08T00:55:40.659Z,101018.38
2022-12-08T00:58:09.335Z,101012.83
2022-12-08T01:00:40.945Z,101005.86
2022-12-08T01:03:13.656Z,101006.61
2022-12-08T01:05:42.476Z,101005.60
2022-12-08T01:08:11.361Z,101009.03
2022-12-08T01:10:40.052Z,101011.67
2022-12-08T01:13:08.705Z,101010.00
2022-12-08T01:15:37.540Z,101005.22
2022-12-08T01:18:06.240Z,100998.89
2022-12-08T01:20:34.948Z,100998.09
2022-12-08T01:23:03.607Z,101000.60
2022-12-08T01:25:35.782Z,101000.28
2022-12-08T01:28:04.869Z,100996.51
2022-12-08T01:30:33.555Z,100992.48
2022-12-08T01:33:02.365Z,100995.23
2022-12-08T01:35:31.130Z,100995.67
2022-12-08T01:37:59.847Z,101002.54
2022-12-08T01:40:28.549Z,101009.63
2022-12-08T01:42:57.162Z,101012.64
2022-12-08T01:45:29.354Z,101014.17
2022-12-08T01:48:04.953Z,101015.08
2022-12-08T01:50:34.488Z,101016.77
2022-12-08T01:53:28.693Z,101014.97
2022-12-08T01:56:13.311Z,101015.84
2022-12-08T01:58:49.894Z,101016.19
2022-12-08T02:01:19.028Z,101011.69
2022-12-08T02:03:58.656Z,101014.34
2022-12-08T02:06:35.182Z,101012.73
2022-12-08T02:09:06.331Z,101014.28
2022-12-08T02:11:35.006Z,101013.98
2022-12-08T02:14:09.511Z,101008.39
2022-12-08T02:17:00.699Z,101011.79
2022-12-08T02:20:13.738Z,101015.13
2022-12-08T02:23:12.293Z,101017.20
2022-12-08T02:26:09.907Z,101014.67
2022-12-08T02:29:13.213Z,101013.02
2022-12-08T02:31:59.935Z,101009.81
2022-12-08T02:35:01.894Z,101011.23
2022-12-08T02:37:37.520Z,101012.61
2022-12-08T02:40:20.128Z,101018.20
2022-12-08T02:42:59.032Z,101019.42
2022-12-08T02:45:50.191Z,101026.36
2022-12-08T02:48:18.934Z,101030.96
2022-12-08T02:50:47.909Z,101033.92
2022-12-08T02:56:02.402Z,101040.45
2022-12-08T02:58:46.912Z,101033.36
2022-12-08T03:02:26.095Z,101035.23
2022-12-08T03:05:19.354Z,101043.36
2022-12-08T03:08:03.191Z,101045.70
2022-12-08T03:10:41.071Z,101045.92
2022-12-08T03:13:17.592Z,101054.16
2022-12-08T03:15:50.446Z,101053.71
2022-12-08T03:18:25.078Z,101057.98
2022-12-08T03:20:53.895Z,101062.36
2022-12-08T03:23:24.931Z,101058.00
2022-12-08T03:26:04.679Z,101063.15
2022-12-08T03:28:33.702Z,101061.38
2022-12-08T03:31:08.116Z,101063.89
2022-12-08T03:33:41.050Z,101064.90
2022-12-08T03:36:12.583Z,101068.59
2022-12-08T03:38:47.031Z,101065.42
2022-12-08T03:41:18.697Z,101068.83
2022-12-08T03:43:55.439Z,101069.76
2022-12-08T03:48:55.316Z,101073.16
2022-12-08T03:51:24.989Z,101076.35
2022-12-08T03:53:54.416Z,101076.69
2022-12-08T03:56:36.964Z,101078.86
2022-12-08T03:59:07.669Z,101083.37
2022-12-08T04:01:36.502Z,101081.34
2022-12-08T04:04:05.321Z,101079.05
2022-12-08T04:06:34.125Z,101081.27
2022-12-08T04:09:02.903Z,101080.85
2022-12-08T04:11:31.457Z,101082.55
2022-12-08T04:14:00.132Z,101079.08
2022-12-08T04:16:29.020Z,101076.56
2022-12-08T04:18:57.713Z,101072.19
2022-12-08T04:21:26.338Z,101069.02
2022-12-08T04:24:00.882Z,101065.02
2022-12-08T04:26:30.231Z,101060.18
2022-12-08T04:28:58.965Z,101063.81
2022-12-08T04:31:27.816Z,101057.17
2022-12-08T04:33:56.478Z,101059.40
2022-12-08T04:36:25.167Z,101045.23
2022-12-08T04:38:54.140Z,101057.80
2022-12-08T04:41:22.826Z,101054.06
2022-12-08T04:43:51.579Z,101046.88
2022-12-08T04:46:20.271Z,101045.92
2022-12-08T04:48:48.941Z,101050.03
2022-12-08T04:51:19.929Z,101053.20
2022-12-08T04:53:48.886Z,101052.42
2022-12-08T04:56:19.946Z,101052.77
2022-12-08T04:58:48.710Z,101056.23
2022-12-08T05:01:17.453Z,101055.22
2022-12-08T05:03:46.132Z,101051.52
2022-12-08T05:06:15.338Z,101059.39
2022-12-08T05:08:44.380Z,101060.03
2022-12-08T05:11:13.754Z,101061.79
2022-12-08T05:13:42.603Z,101061.64
2022-12-08T05:16:16.079Z,101060.98
2022-12-08T05:18:44.779Z,101062.04
2022-12-08T05:21:13.377Z,101064.84
2022-12-08T05:23:41.933Z,101065.84
2022-12-08T05:26:10.662Z,101071.01
2022-12-08T05:28:42.377Z,101072.75
2022-12-08T05:31:16.508Z,101076.80
2022-12-08T05:33:46.383Z,101084.18
2022-12-08T05:36:16.545Z,101091.55
2022-12-08T05:38:46.191Z,101093.61
2022-12-08T05:41:19.152Z,101100.12
2022-12-08T05:43:49.152Z,101100.80
2022-12-08T05:46:18.145Z,101107.76
2022-12-08T05:48:46.876Z,101106.98
2022-12-08T05:51:24.850Z,101108.86
2022-12-08T05:53:54.554Z,101114.89
2022-12-08T05:56:23.385Z,101116.69
2022-12-08T05:58:52.206Z,101118.73
2022-12-08T06:01:27.731Z,101116.66
2022-12-08T06:03:58.847Z,101117.35
2022-12-08T06:06:28.696Z,101117.16
2022-12-08T06:08:57.586Z,101123.73
2022-12-08T06:11:30.350Z,101125.13
2022-12-08T06:13:59.470Z,101133.06
2022-12-08T06:16:28.805Z,101136.59
2022-12-08T06:18:58.062Z,101142.61
2022-12-08T06:21:26.795Z,101146.48
2022-12-08T06:23:55.630Z,101150.27
2022-12-08T06:26:24.537Z,101154.07
2022-12-08T06:28:53.187Z,101158.91
2022-12-08T06:31:26.838Z,101160.35
2022-12-08T06:33:55.991Z,101156.79
2022-12-08T06:36:28.073Z,101160.94
2022-12-08T06:38:57.490Z,101158.30
2022-12-08T06:41:27.165Z,101159.92
2022-12-08T06:43:58.881Z,101165.05
2022-12-08T06:46:27.671Z,101163.11
2022-12-08T06:48:56.358Z,101166.11
2022-12-08T06:51:25.104Z,101166.07
2022-12-08T06:53:53.719Z,101163.32
2022-12-08T06:56:24.622Z,101165.68
2022-12-08T06:58:53.358Z,101162.63
2022-12-08T07:01:22.375Z,101159.36
2022-12-08T07:03:51.082Z,101162.55
2022-12-08T07:06:25.548Z,101160.24
2022-12-08T07:08:54.314Z,101167.13
2022-12-08T07:11:23.008Z,101166.26
2022-12-08T07:13:51.700Z,101172.46
2022-12-08T07:16:20.418Z,101175.91
2022-12-08T07:18:49.270Z,101182.05
2022-12-08T07:21:18.264Z,101176.92
2022-12-08T07:23:54.230Z,101176.52
2022-12-08T07:26:25.082Z,101174.14
2022-12-08T07:28:53.900Z,101176.43
2022-12-08T07:31:25.287Z,101183.05
2022-12-08T07:33:55.164Z,101184.30
2022-12-08T07:36:25.044Z,101185.09
2022-12-08T07:38:54.102Z,101179.52
2022-12-08T07:41:25.887Z,101177.49
2022-12-08T07:43:56.532Z,101180.20
2022-12-08T07:46:27.089Z,101188.34
2022-12-08T07:48:56.069Z,101189.88
2022-12-08T07:51:25.361Z,101191.65
2022-12-08T07:53:55.185Z,101190.14
2022-12-08T07:56:24.588Z,101193.09
2022-12-08T07:58:53.307Z,101193.55
2022-12-08T08:01:34.697Z,101195.73
2022-12-08T08:04:05.573Z,101194.05
2022-12-08T08:06:37.166Z,101200.67
2022-12-08T08:09:06.705Z,101206.14
2022-12-08T08:11:35.369Z,101211.77
2022-12-08T08:14:04.071Z,101213.48
2022-12-08T08:16:38.108Z,101212.27
2022-12-08T08:19:07.290Z,101205.88
2022-12-08T08:21:45.699Z,101206.13
2022-12-08T08:24:14.899Z,101205.36
2022-12-08T08:26:43.807Z,101202.87
2022-12-08T08:29:12.509Z,101202.73
2022-12-08T08:31:41.289Z,101203.58
2022-12-08T08:34:10.057Z,101204.45
2022-12-08T08:36:39.935Z,101209.81
2022-12-08T08:39:09.130Z,101211.69
2022-12-08T08:41:37.875Z,101212.63
2022-12-08T08:44:06.506Z,101208.73
2022-12-08T08:46:35.242Z,101207.71
2022-12-08T08:49:03.945Z,101205.14
2022-12-08T08:51:32.625Z,101201.14
2022-12-08T08:54:01.592Z,101197.79
2022-12-08T08:56:30.754Z,101198.15
2022-12-08T08:58:59.527Z,101195.72
2022-12-08T09:01:28.544Z,101197.20
2022-12-08T09:03:58.055Z,101195.34
2022-12-08T09:06:28.586Z,101189.93
2022-12-08T09:08:57.708Z,101188.06
2022-12-08T09:11:28.155Z,101187.09
2022-12-08T09:13:56.817Z,101189.80
2022-12-08T09:16:25.815Z,101193.45
2022-12-08T09:18:54.637Z,101191.33
2022-12-08T09:21:27.007Z,101193.04
2022-12-08T09:23:58.937Z,101192.19
2022-12-08T09:26:28.834Z,101192.29
2022-12-08T09:28:58.253Z,101192.09
2022-12-08T09:31:26.976Z,101184.67
2022-12-08T09:33:55.725Z,101184.65
2022-12-08T09:36:24.374Z,101185.66
2022-12-08T09:38:54.848Z,101184.67
2022-12-08T09:41:48.637Z,101176.52
2022-12-08T09:44:44.607Z,101175.88
2022-12-08T09:47:23.103Z,101178.47
2022-12-08T09:50:12.605Z,101176.20
2022-12-08T09:52:54.096Z,101179.83
2022-12-08T09:55:43.982Z,101181.12
2022-12-08T09:58:52.167Z,101181.25
2022-12-08T10:01:23.309Z,101184.44
2022-12-08T10:03:52.823Z,101186.87
2022-12-08T10:06:59.559Z,101182.92
2022-12-08T10:10:22.033Z,101177.98
2022-12-08T10:13:03.356Z,101172.71
2022-12-08T10:16:04.371Z,101168.86
2022-12-08T10:18:35.077Z,101164.45
2022-12-08T10:21:26.112Z,101160.52
2022-12-08T10:24:02.351Z,101160.11
2022-12-08T10:26:33.486Z,101153.64
2022-12-08T10:29:03.278Z,101154.51
2022-12-08T10:31:32.613Z,101150.50
2022-12-08T10:34:23.303Z,101147.58
2022-12-08T10:36:57.440Z,101151.09
2022-12-08T10:39:45.854Z,101151.92
2022-12-08T10:42:14.418Z,101155.56
2022-12-08T10:44:59.903Z,101151.77
2022-12-08T10:47:30.537Z,101154.70
2022-12-08T10:50:32.635Z,101161.77
2022-12-08T10:53:25.897Z,101161.67
2022-12-08T10:56:03.551Z,101160.05
2022-12-08T10:58:40.761Z,101163.46
2022-12-08T11:01:20.526Z,101156.14
2022-12-08T11:04:17.946Z,101168.09
2022-12-08T11:06:48.542Z,101164.29
2022-12-08T11:09:36.803Z,101163.73
2022-12-08T11:12:14.684Z,101160.05
2022-12-08T11:14:43.291Z,101155.02
2022-12-08T11:17:24.789Z,101148.39
2022-12-08T11:20:06.715Z,101145.11
2022-12-08T11:22:44.852Z,101143.21
2022-12-08T11:25:27.864Z,101140.55
2022-12-08T11:28:02.206Z,101135.09
2022-12-08T11:30:43.839Z,101133.63
2022-12-08T11:33:22.024Z,101127.40
2022-12-08T11:36:00.941Z,101122.88
2022-12-08T11:38:31.411Z,101124.19
2022-12-08T11:41:14.026Z,101127.84
2022-12-08T11:44:13.127Z,101131.87
2022-12-08T11:47:08.549Z,101129.34
2022-12-08T11:49:42.046Z,101131.47
2022-12-08T11:52:42.339Z,101134.20
2022-12-08T11:55:43.865Z,101128.19
2022-12-08T11:58:17.493Z,101129.06
2022-12-08T12:00:46.357Z,101126.82
2022-12-08T12:03:26.816Z,101127.89
2022-12-08T12:06:53.152Z,101122.39
2022-12-08T12:09:44.987Z,101118.47
2022-12-08T12:12:50.621Z,101121.58
2022-12-08T12:15:40.046Z,101112.89
2022-12-08T12:18:54.297Z,101114.34
2022-12-08T12:21:44.739Z,101115.27
2022-12-08T12:24:37.815Z,101116.08
2022-12-08T12:27:15.899Z,101116.17
2022-12-08T12:29:59.384Z,101117.44
2022-12-08T12:32:40.089Z,101116.95
2022-12-08T12:35:26.940Z,101113.61
2022-12-08T12:38:02.323Z,101109.52
2022-12-08T12:40:42.302Z,101109.84
2022-12-08T12:43:11.001Z,101114.40
2022-12-08T12:45:44.206Z,101109.77
2022-12-08T12:48:25.800Z,101108.64
2022-12-08T12:50:55.435Z,101106.85
2022-12-08T12:53:24.471Z,101111.20
2022-12-08T12:55:58.909Z,101114.29
2022-12-08T12:58:31.241Z,101113.48
2022-12-08T13:01:11.969Z,101113.36
2022-12-08T13:03:44.141Z,101107.30
2022-12-08T13:06:15.830Z,101106.24
2022-12-08T13:08:55.010Z,101110.89
2022-12-08T13:11:26.580Z,101111.94
2022-12-08T13:14:05.011Z,101102.30
2022-12-08T13:16:38.879Z,101098.50
2022-12-08T13:19:16.386Z,101098.96
2022-12-08T13:21:45.163Z,101098.63
2022-12-08T13:24:25.499Z,101097.25
2022-12-08T13:27:06.310Z,101100.44
2022-12-08T13:29:36.316Z,101102.66
2022-12-08T13:32:28.230Z,101098.08
2022-12-08T13:35:00.277Z,101098.14
2022-12-08T13:37:50.945Z,101100.90
2022-12-08T13:40:30.485Z,101097.23
2022-12-08T13:43:22.841Z,101094.39
2022-12-08T13:46:57.479Z,101099.59
2022-12-08T13:53:35.088Z,101098.39
2022-12-08T13:56:05.399Z,101100.80
2022-12-08T13:57:34.737Z,101107.39
2022-12-08T14:00:24.597Z,101108.74
2022-12-08T14:02:58.457Z,101106.10
2022-12-08T14:06:10.424Z,101109.04
2022-12-08T14:11:35.154Z,101105.61
2022-12-08T14:14:45.955Z,101101.92
2022-12-08T14:17:29.325Z,101100.63
2022-12-08T14:20:26.309Z,101104.00
2022-12-08T14:22:59.152Z,101102.22
2022-12-08T14:25:30.017Z,101108.48
2022-12-08T14:28:05.140Z,101104.58
2022-12-08T14:30:37.281Z,101103.27
2022-12-08T14:33:06.078Z,101106.67
2022-12-08T14:35:37.547Z,101104.05
2022-12-08T14:38:18.278Z,101102.64
2022-12-08T14:41:02.395Z,101096.30
2022-12-08T14:43:31.754Z,101096.48
2022-12-08T14:46:06.467Z,101094.70
2022-12-08T14:48:36.408Z,101098.20
2022-12-08T14:51:10.288Z,101097.92
2022-12-08T14:54:15.525Z,101099.76
2022-12-08T14:56:53.252Z,101096.94
2022-12-08T14:59:35.636Z,101094.13
2022-12-08T15:02:22.943Z,101096.42
2022-12-08T15:05:02.073Z,101091.77
2022-12-08T15:07:45.429Z,101091.61
2022-12-08T15:10:16.979Z,101089.05
2022-12-08T15:13:19.730Z,101097.14
2022-12-08T15:15:58.379Z,101097.54
2022-12-08T15:18:39.994Z,101096.73
2022-12-08T15:21:13.061Z,101097.87
2022-12-08T15:23:46.476Z,101102.54
2022-12-08T15:26:26.621Z,101106.04
2022-12-08T15:28:56.071Z,101108.84
2022-12-08T15:31:24.771Z,101110.16
2022-12-08T15:33:53.379Z,101105.49
2022-12-08T15:36:21.972Z,101105.14
2022-12-08T15:38:50.614Z,101107.80
2022-12-08T15:41:19.343Z,101107.35
2022-12-08T15:43:47.980Z,101102.14
2022-12-08T15:46:16.681Z,101099.38
2022-12-08T15:48:45.684Z,101095.88
2022-12-08T15:51:14.420Z,101096.16
2022-12-08T15:53:43.306Z,101098.88
2022-12-08T15:56:29.381Z,101100.23
2022-12-08T15:58:58.661Z,101104.55
2022-12-08T16:01:27.789Z,101105.85
2022-12-08T16:09:40.847Z,101105.04
2022-12-08T16:13:40.306Z,101102.93
2022-12-08T16:18:27.233Z,101110.42
2022-12-08T16:23:45.950Z,101120.92
2022-12-08T16:27:06.833Z,101118.89
2022-12-08T16:29:18.680Z,101113.90
2022-12-08T16:31:47.888Z,101116.02
2022-12-08T16:34:16.765Z,101118.85
2022-12-08T16:36:45.411Z,101110.33
2022-12-08T16:39:14.739Z,101106.24
2022-12-08T16:42:01.597Z,101100.70
2022-12-08T16:44:30.304Z,101090.11
2022-12-08T16:46:58.972Z,101088.28
2022-12-08T16:49:27.568Z,101087.36
2022-12-08T16:51:56.346Z,101086.77
2022-12-08T16:54:25.084Z,101081.89
2022-12-08T16:56:54.109Z,101079.30
2022-12-08T16:59:22.683Z,101087.16
2022-12-08T17:01:51.340Z,101090.98
2022-12-08T17:04:35.354Z,101090.80
2022-12-08T17:07:06.580Z,101095.27
2022-12-08T17:09:35.274Z,101095.67
2022-12-08T17:12:04.589Z,101094.11
2022-12-08T17:14:35.706Z,101103.02
2022-12-08T17:17:04.625Z,101101.80
2022-12-08T17:19:34.254Z,101101.34
2022-12-08T17:22:03.042Z,101097.78
2022-12-08T17:24:32.143Z,101091.91
2022-12-08T17:27:04.560Z,101090.81
2022-12-08T17:29:34.521Z,101090.52
2022-12-08T17:32:03.771Z,101096.30
2022-12-08T17:34:33.317Z,101094.63
2022-12-08T17:37:02.270Z,101092.88
2022-12-08T17:39:31.176Z,101094.44
2022-12-08T17:41:59.939Z,101098.50
2022-12-08T17:44:28.596Z,101099.55
2022-12-08T17:46:57.368Z,101103.04
2022-12-08T17:49:29.817Z,101107.05
2022-12-08T17:52:02.705Z,101106.44
2022-12-08T17:54:31.567Z,101099.36
2022-12-08T17:57:00.607Z,101097.52
2022-12-08T17:59:30.041Z,101093.52
2022-12-08T18:01:59.927Z,101091.17
2022-12-08T18:04:29.275Z,101090.87
2022-12-08T18:07:00.358Z,101091.29
2022-12-08T18:09:31.512Z,101090.94
2022-12-08T18:12:00.663Z,101085.77
2022-12-08T18:14:29.654Z,101079.35
2022-12-08T18:16:58.423Z,101078.76
2022-12-08T18:19:28.056Z,101076.42
2022-12-08T18:21:56.956Z,101076.62
2022-12-08T18:24:25.534Z,101076.86
2022-12-08T18:26:55.761Z,101075.04
2022-12-08T18:29:25.031Z,101070.16
2022-12-08T18:33:44.860Z,101076.56
2022-12-08T18:36:18.732Z,101087.20
2022-12-08T18:38:48.212Z,101092.27
2022-12-08T18:41:26.210Z,101094.95
2022-12-08T18:43:57.490Z,101084.20
2022-12-08T18:46:26.256Z,101081.90
2022-12-08T18:48:55.081Z,101077.55
2022-12-08T18:51:58.616Z,101075.65
2022-12-08T18:54:57.787Z,101079.16
2022-12-08T18:57:18.364Z,101081.40
2022-12-08T18:59:47.160Z,101088.75
2022-12-08T19:02:16.677Z,101090.89
2022-12-08T19:04:45.979Z,101085.45
2022-12-08T19:08:02.354Z,101080.02
2022-12-08T19:10:33.672Z,101081.79
2022-12-08T19:13:02.487Z,101086.86
2022-12-08T19:15:32.161Z,101093.05
2022-12-08T19:18:01.361Z,101082.02
2022-12-08T19:20:30.055Z,101074.73
2022-12-08T19:22:58.726Z,101065.89
2022-12-08T19:25:27.349Z,101068.89
2022-12-08T19:27:56.003Z,101073.24
2022-12-08T19:30:24.689Z,101076.06
2022-12-08T19:32:53.425Z,101076.06
2022-12-08T19:41:59.132Z,101085.29
2022-12-08T19:44:48.308Z,101077.83
2022-12-08T19:47:17.106Z,101081.75
2022-12-08T19:49:45.896Z,101081.44
2022-12-08T19:52:14.580Z,101074.89
2022-12-08T19:54:43.998Z,101072.41
2022-12-08T19:57:12.901Z,101078.48
2022-12-08T19:59:41.599Z,101078.48
2022-12-08T20:02:12.002Z,101079.19
2022-12-08T20:04:40.787Z,101068.65
2022-12-08T20:07:12.864Z,101057.60
2022-12-08T20:09:41.546Z,101055.03
2022-12-08T20:12:10.276Z,101055.84
2022-12-08T20:14:44.136Z,101051.48
2022-12-08T20:17:14.786Z,101038.53
2022-12-08T20:19:43.467Z,101034.59
2022-12-08T20:22:12.161Z,101032.96
2022-12-08T20:24:40.984Z,101027.30
2022-12-08T20:27:09.759Z,101023.52
2022-12-08T20:29:38.342Z,101024.29
2022-12-08T20:32:07.357Z,101025.89
2022-12-08T20:34:36.746Z,101019.33
2022-12-08T20:37:05.383Z,101018.02
2022-12-08T20:39:35.381Z,101012.60
2022-12-08T20:42:05.153Z,101015.75
2022-12-08T20:44:33.768Z,101011.89
2022-12-08T20:47:02.636Z,101006.74
2022-12-08T20:49:34.784Z,101009.98
2022-12-08T20:52:04.102Z,101014.48
2022-12-08T20:54:33.211Z,101020.89
2022-12-08T20:57:02.101Z,101024.20
2022-12-08T20:59:31.009Z,101022.48
2022-12-08T21:02:00.878Z,101012.46
2022-12-08T21:04:29.986Z,101006.00
2022-12-08T21:06:59.919Z,101007.27
2022-12-08T21:09:28.920Z,101004.80
2022-12-08T21:11:58.022Z,101002.95
2022-12-08T21:14:26.977Z,100999.61
2022-12-08T21:16:56.320Z,100992.90
2022-12-08T21:19:25.200Z,100991.80
2022-12-08T21:21:53.904Z,100987.46
2022-12-08T21:24:22.599Z,100982.70
2022-12-08T21:26:51.304Z,100982.48
2022-12-08T21:29:19.954Z,100980.03
2022-12-08T21:31:48.735Z,100983.09
2022-12-08T21:34:17.668Z,100990.23
2022-12-08T21:36:46.408Z,100978.61
2022-12-08T21:39:15.239Z,100974.28
2022-12-08T21:42:02.626Z,100963.12
2022-12-08T21:44:35.672Z,100961.80
2022-12-08T21:47:05.120Z,100954.88
2022-12-08T21:49:34.645Z,100957.02
2022-12-08T21:52:04.010Z,100961.77
2022-12-08T21:54:32.814Z,100958.27
2022-12-08T21:57:01.481Z,100964.28
2022-12-08T21:59:30.404Z,100965.04
2022-12-08T22:01:59.436Z,100967.42
2022-12-08T22:04:28.572Z,100967.27
2022-12-08T22:06:57.419Z,100971.23
2022-12-08T22:09:26.309Z,100967.23
2022-12-08T22:11:55.495Z,100962.70
2022-12-08T22:14:25.659Z,100958.73
2022-12-08T22:16:54.371Z,100948.20
2022-12-08T22:19:24.810Z,100937.00
2022-12-08T22:21:53.550Z,100927.89
2022-12-08T22:24:22.559Z,100920.91
2022-12-08T22:26:51.823Z,100928.30
2022-12-08T22:29:20.359Z,100925.70
2022-12-08T22:31:49.218Z,100926.40
2022-12-08T22:34:17.869Z,100913.94
2022-12-08T22:36:46.508Z,100918.01
2022-12-08T22:39:15.338Z,100917.73
2022-12-08T22:41:44.155Z,100919.42
2022-12-08T22:44:15.625Z,100916.76
2022-12-08T22:46:44.324Z,100916.14
2022-12-08T22:49:13.218Z,100921.39
2022-12-08T22:51:41.853Z,100919.84
2022-12-08T22:54:12.217Z,100913.64
2022-12-08T22:56:40.939Z,100908.89
2022-12-08T22:59:09.719Z,100905.14
2022-12-08T23:01:38.723Z,100897.23
2022-12-08T23:04:12.633Z,100899.91
2022-12-08T23:06:44.736Z,100896.05
2022-12-08T23:09:13.589Z,100894.84
2022-12-08T23:11:43.159Z,100895.18
2022-12-08T23:14:12.012Z,100895.85
2022-12-08T23:16:41.632Z,100892.84
2022-12-08T23:19:10.677Z,100888.30
2022-12-08T23:21:39.562Z,100884.80
2022-12-08T23:24:08.336Z,100883.90
2022-12-08T23:26:37.397Z,100892.64
2022-12-08T23:29:06.312Z,100896.42
2022-12-08T23:31:35.002Z,100896.38
2022-12-08T23:34:03.992Z,100905.73
2022-12-08T23:36:33.002Z,100907.17
2022-12-08T23:39:01.869Z,100911.27
2022-12-08T23:41:30.887Z,100907.83
2022-12-08T23:43:59.651Z,100899.63
2022-12-08T23:46:28.510Z,100897.34
2022-12-08T23:48:57.567Z,100900.73
2022-12-08T23:51:29.670Z,100902.56
2022-12-08T23:53:58.525Z,100900.88
2022-12-08T23:56:30.399Z,100895.36
2022-12-08T23:59:01.343Z,100888.80
